Time;durP1;ratioP1;P1;durP2;ratioP2;P2;SDS_P1;SDS_P2;PMS_P1;PMS_P2;Temp;Humidity;BMP_temperature;BMP_pressure;BME280_temperature;BME280_humidity;BME280_pressure;Samples;Min_cycle;Max_cycle;Signal;HPM_P1;HPM_P2
2022/11/05 03:00:43;;;;;;;13.20;12.30;;;8.90;99.90;;;;;;6023803;23;21006;31
2022/11/05 03:03:18;;;;;;;12.60;11.80;;;8.90;99.90;;;;;;4895529;29;20242;-82
2022/11/05 03:05:59;;;;;;;13.33;12.50;;;8.90;99.90;;;;;;4896180;29;20269;-81
2022/11/05 03:08:44;;;;;;;12.90;12.10;;;8.90;99.90;;;;;;4898541;29;20212;-82
2022/11/05 03:11:14;;;;;;;13.60;12.70;;;8.90;99.90;;;;;;4899226;29;20231;-82
2022/11/05 03:13:51;;;;;;;13.73;12.83;;;8.90;99.90;;;;;;4900863;29;20616;-82
2022/11/05 03:16:26;;;;;;;13.27;12.47;;;8.90;99.90;;;;;;4901760;29;20323;-82
2022/11/05 03:19:00;;;;;;;13.10;12.30;;;8.90;99.90;;;;;;4896043;29;20201;-82
2022/11/05 03:21:36;;;;;;;14.03;13.03;;;8.90;99.90;;;;;;4893352;29;20208;-82
2022/11/05 03:24:10;;;;;;;12.97;12.17;;;8.90;99.90;;;;;;4899053;29;20208;-81
2022/11/05 03:26:43;;;;;;;11.93;11.13;;;8.90;99.90;;;;;;4900083;29;20211;-82
2022/11/05 03:29:16;;;;;;;14.27;13.37;;;8.90;99.90;;;;;;4892036;29;20202;-82
2022/11/05 03:31:47;;;;;;;13.73;12.83;;;8.90;99.90;;;;;;4901014;29;20223;-82
2022/11/05 03:34:16;;;;;;;13.80;12.73;;;8.90;99.90;;;;;;4894702;29;20213;-81
2022/11/05 03:36:48;;;;;;;12.97;12.17;;;8.90;99.90;;;;;;4894657;29;20205;-81
2022/11/05 03:39:20;;;;;;;13.50;12.50;;;8.90;99.90;;;;;;4893799;29;20577;-82
2022/11/05 03:41:51;;;;;;;13.73;12.83;;;8.90;99.90;;;;;;4896318;29;20229;-82
2022/11/05 03:44:24;;;;;;;13.80;12.90;;;8.90;99.90;;;;;;4898682;29;20606;-82
2022/11/05 03:46:56;;;;;;;13.20;12.33;;;8.90;99.90;;;;;;4895271;29;20212;-82
2022/11/05 03:49:28;;;;;;;13.77;12.80;;;8.90;99.90;;;;;;4892832;29;20216;-81
2022/11/05 03:51:59;;;;;;;13.13;12.23;;;8.90;99.90;;;;;;4892049;29;20220;-82
2022/11/05 03:54:27;;;;;;;13.33;12.43;;;9.00;99.90;;;;;;4895837;29;20208;-81
2022/11/05 03:57:01;;;;;;;13.63;12.60;;;9.00;99.90;;;;;;4899131;29;20208;-81
2022/11/05 03:59:29;;;;;;;13.63;12.73;;;9.00;99.90;;;;;;4895011;29;20582;-81
2022/11/05 04:01:58;;;;;;;13.27;12.37;;;9.00;99.90;;;;;;4893883;29;20236;-81
2022/11/05 04:04:25;;;;;;;13.30;12.50;;;9.00;99.90;;;;;;4900090;29;20193;-81
2022/11/05 04:15:16;;;;;;;13.53;12.73;;;8.90;99.90;;;;;;4894507;29;20296;-83
2022/11/05 04:17:44;;;;;;;13.17;12.27;;;8.90;99.90;;;;;;4901257;29;20207;-85
2022/11/05 04:25:44;;;;;;;13.50;12.60;;;8.80;99.90;;;;;;4907700;29;20203;-83
2022/11/05 04:28:12;;;;;;;13.97;13.07;;;8.90;99.90;;;;;;4893629;29;20697;-82
2022/11/05 04:30:38;;;;;;;13.53;12.70;;;8.90;99.90;;;;;;4902161;29;20223;-83
2022/11/05 04:33:08;;;;;;;12.80;12.03;;;8.90;99.90;;;;;;4901511;29;20200;-83
2022/11/05 04:35:36;;;;;;;13.20;12.30;;;8.90;99.90;;;;;;4902490;29;20697;-83
2022/11/05 04:38:05;;;;;;;13.43;12.63;;;8.90;99.90;;;;;;4904237;29;20201;-82
2022/11/05 04:40:32;;;;;;;13.77;12.93;;;8.90;99.90;;;;;;4897235;29;20203;-83
2022/11/05 04:42:59;;;;;;;13.30;12.50;;;8.90;99.90;;;;;;4898839;29;20197;-82
2022/11/05 04:45:28;;;;;;;14.10;13.20;;;8.90;99.90;;;;;;4896532;29;20220;-82
2022/11/05 04:47:55;;;;;;;14.30;13.40;;;8.90;99.90;;;;;;4901914;29;20198;-82
2022/11/05 04:50:24;;;;;;;13.83;12.93;;;8.80;99.90;;;;;;4899354;29;20204;-84
2022/11/05 04:52:51;;;;;;;13.90;13.00;;;8.90;99.90;;;;;;4891519;29;20208;-82
2022/11/05 04:55:18;;;;;;;13.87;12.97;;;8.90;99.90;;;;;;4900483;29;20201;-82
2022/11/05 04:57:48;;;;;;;14.50;13.60;;;8.80;99.90;;;;;;4895368;29;20208;-81
2022/11/05 05:00:15;;;;;;;15.07;13.87;;;8.90;99.90;;;;;;4893686;29;20211;-81
2022/11/05 05:02:42;;;;;;;14.70;13.70;;;8.90;99.90;;;;;;4894060;29;20589;-81
2022/11/05 05:05:09;;;;;;;14.37;13.53;;;8.90;99.90;;;;;;4890396;29;20245;-80
2022/11/05 05:07:37;;;;;;;14.20;13.30;;;8.90;99.90;;;;;;4895675;29;20204;-80
2022/11/05 05:10:06;;;;;;;14.20;13.20;;;9.00;99.90;;;;;;4893977;29;20204;-81
2022/11/05 05:12:33;;;;;;;14.33;13.43;;;9.00;99.90;;;;;;4891579;29;20739;-81
2022/11/05 05:15:00;;;;;;;14.73;13.83;;;8.90;99.90;;;;;;4889836;29;20661;-81
2022/11/05 05:17:27;;;;;;;14.33;13.40;;;8.90;99.90;;;;;;4895601;29;20213;-83
2022/11/05 05:22:36;;;;;;;14.17;13.27;;;8.90;99.90;;;;;;4872245;29;20220;-82
2022/11/05 05:25:04;;;;;;;13.50;12.60;;;8.90;99.90;;;;;;4893482;29;20613;-81
2022/11/05 05:27:31;;;;;;;13.63;12.77;;;8.80;99.90;;;;;;4896842;29;20201;-81
2022/11/05 05:29:59;;;;;;;14.37;13.47;;;8.80;99.90;;;;;;4896760;29;20196;-81
2022/11/05 05:32:27;;;;;;;14.30;13.40;;;8.90;99.90;;;;;;4899735;29;20201;-82
2022/11/05 05:34:54;;;;;;;14.47;13.60;;;8.90;99.90;;;;;;4895091;29;20204;-81
2022/11/05 05:37:20;;;;;;;14.00;13.20;;;8.90;99.90;;;;;;4895957;29;20268;-81
2022/11/05 05:39:49;;;;;;;14.50;13.60;;;8.80;99.90;;;;;;4895490;29;20197;-81
2022/11/05 05:42:15;;;;;;;14.60;13.60;;;8.80;99.90;;;;;;4894873;29;20213;-82
2022/11/05 05:44:42;;;;;;;14.07;13.20;;;8.80;99.90;;;;;;4897812;29;20202;-82
2022/11/05 05:47:09;;;;;;;14.30;13.43;;;8.80;99.90;;;;;;4896471;29;20253;-81
2022/11/05 05:49:36;;;;;;;13.80;13.00;;;8.80;99.90;;;;;;4901099;29;20197;-82
2022/11/05 05:52:03;;;;;;;14.60;13.60;;;8.80;99.90;;;;;;4897742;29;20235;-81
2022/11/05 05:54:30;;;;;;;14.20;13.30;;;8.80;99.90;;;;;;4900133;29;20579;-82
2022/11/05 05:56:58;;;;;;;13.87;13.07;;;8.80;99.90;;;;;;4902470;29;20746;-82
2022/11/05 05:59:25;;;;;;;13.90;13.10;;;8.80;99.90;;;;;;4901944;29;20618;-81
2022/11/05 06:01:52;;;;;;;15.10;14.20;;;8.80;99.90;;;;;;4901985;29;20243;-82
2022/11/05 06:04:19;;;;;;;13.93;13.13;;;8.80;99.90;;;;;;4903877;29;20196;-82
2022/11/05 06:06:47;;;;;;;14.17;13.07;;;8.80;99.90;;;;;;4897437;29;20670;-82
2022/11/05 06:09:14;;;;;;;14.60;13.70;;;8.80;99.90;;;;;;4899951;29;20205;-81
2022/11/05 06:11:41;;;;;;;14.80;13.70;;;8.80;99.90;;;;;;4898925;29;20272;-81
2022/11/05 06:14:11;;;;;;;14.70;13.70;;;8.80;99.90;;;;;;4902685;29;20200;-81
2022/11/05 06:16:38;;;;;;;14.77;13.87;;;8.80;99.90;;;;;;4903572;29;20227;-82
2022/11/05 06:19:06;;;;;;;14.87;13.87;;;8.80;99.90;;;;;;4899671;29;20208;-82
2022/11/05 06:21:32;;;;;;;15.77;14.77;;;8.80;99.90;;;;;;4900385;29;20251;-82
2022/11/05 06:24:01;;;;;;;15.20;14.30;;;8.80;99.90;;;;;;4896972;29;20201;-82
2022/11/05 06:26:28;;;;;;;15.70;14.60;;;8.80;99.90;;;;;;4891523;29;20279;-83
2022/11/05 06:28:55;;;;;;;15.70;14.60;;;8.80;99.90;;;;;;4897473;29;20215;-83
2022/11/05 06:31:23;;;;;;;15.23;14.13;;;8.80;99.90;;;;;;4901333;29;21219;-82
2022/11/05 06:33:50;;;;;;;15.60;14.60;;;8.80;99.90;;;;;;4897563;29;20513;-80
2022/11/05 06:36:18;;;;;;;15.80;14.70;;;8.80;99.90;;;;;;4901458;29;20198;-82
2022/11/05 06:38:45;;;;;;;15.43;14.53;;;8.80;99.90;;;;;;4901631;29;20207;-81
2022/11/05 06:41:12;;;;;;;15.60;14.60;;;8.80;99.90;;;;;;4899237;29;20212;-83
2022/11/05 06:43:39;;;;;;;14.90;14.00;;;8.80;99.90;;;;;;4888367;29;20233;-81
2022/11/05 06:46:07;;;;;;;15.17;14.10;;;8.90;99.90;;;;;;4896136;29;20271;-82
2022/11/05 06:48:35;;;;;;;15.00;13.90;;;8.90;99.90;;;;;;4895949;29;20217;-81
2022/11/05 06:51:02;;;;;;;15.10;14.20;;;8.90;99.90;;;;;;4897835;29;20248;-81
2022/11/05 06:53:29;;;;;;;15.80;14.90;;;8.90;99.90;;;;;;4900577;29;20236;-82
2022/11/05 06:55:56;;;;;;;14.70;13.73;;;8.90;99.90;;;;;;4899487;29;20201;-82
2022/11/05 06:58:22;;;;;;;14.40;13.60;;;9.00;99.90;;;;;;4897969;29;20223;-81
2022/11/05 07:00:50;;;;;;;15.57;14.67;;;9.00;99.90;;;;;;4892472;29;20265;-81
2022/11/05 07:03:17;;;;;;;15.57;14.53;;;9.00;99.90;;;;;;4899376;29;20199;-83
2022/11/05 07:05:47;;;;;;;14.40;13.60;;;9.00;99.90;;;;;;4893759;29;20208;-83
2022/11/05 07:08:14;;;;;;;15.53;14.43;;;9.10;99.90;;;;;;4899966;29;20629;-82
2022/11/05 07:10:41;;;;;;;14.43;13.63;;;9.10;99.90;;;;;;4897449;29;20201;-82
2022/11/05 07:13:08;;;;;;;14.43;13.63;;;9.10;99.90;;;;;;4891609;29;20221;-81
2022/11/05 07:15:35;;;;;;;14.10;13.30;;;9.10;99.90;;;;;;4898481;29;20209;-82
2022/11/05 07:18:02;;;;;;;13.70;12.90;;;9.10;99.90;;;;;;4896243;29;20209;-80
2022/11/05 07:20:29;;;;;;;13.60;12.80;;;9.10;99.90;;;;;;4896714;29;20200;-82
2022/11/05 07:23:05;;;;;;;13.47;12.67;;;9.20;99.90;;;;;;4895269;29;20680;-82
2022/11/05 07:25:33;;;;;;;13.17;12.40;;;9.20;99.90;;;;;;4898190;29;20619;-82
2022/11/05 07:28:01;;;;;;;13.20;12.50;;;9.20;99.90;;;;;;4898002;29;20197;-83
2022/11/05 07:30:28;;;;;;;13.40;12.60;;;9.20;99.90;;;;;;4896985;29;20662;-83
2022/11/05 07:32:55;;;;;;;12.60;11.90;;;9.20;99.90;;;;;;4888425;29;20605;-81
2022/11/05 07:35:22;;;;;;;13.13;12.43;;;9.20;99.90;;;;;;4896187;29;20213;-83
2022/11/05 07:37:52;;;;;;;12.63;11.90;;;9.20;99.90;;;;;;4891478;29;20208;-82
2022/11/05 07:40:22;;;;;;;12.97;12.17;;;9.20;99.90;;;;;;4896343;29;20584;-82
2022/11/05 07:42:51;;;;;;;12.20;11.50;;;9.20;99.90;;;;;;4893315;29;20201;-83
2022/11/05 07:45:18;;;;;;;12.80;12.10;;;9.30;99.90;;;;;;4896424;29;20674;-82
2022/11/05 07:47:50;;;;;;;13.00;12.30;;;9.30;99.90;;;;;;4893251;29;20208;-82
2022/11/05 07:50:18;;;;;;;12.57;11.87;;;9.30;99.90;;;;;;4891371;29;20205;-82
2022/11/05 07:52:46;;;;;;;12.90;11.93;;;9.30;99.90;;;;;;4895306;29;20236;-82
2022/11/05 07:55:14;;;;;;;12.80;12.10;;;9.30;99.90;;;;;;4891911;29;20258;-82
2022/11/05 07:57:43;;;;;;;12.90;12.20;;;9.40;99.90;;;;;;4898712;29;20205;-83
2022/11/05 08:00:12;;;;;;;13.23;12.33;;;9.50;99.90;;;;;;4891832;29;20201;-82
2022/11/05 08:02:42;;;;;;;12.80;12.10;;;9.60;99.90;;;;;;4891662;29;20247;-82
2022/11/05 08:05:10;;;;;;;12.50;11.80;;;9.60;99.90;;;;;;4894963;29;20296;-83
2022/11/05 08:07:36;;;;;;;12.67;11.87;;;9.60;99.90;;;;;;4883924;29;20692;-83
2022/11/05 08:10:04;;;;;;;12.43;11.73;;;9.60;99.90;;;;;;4887934;29;20193;-82
2022/11/05 08:12:31;;;;;;;13.37;12.67;;;9.60;99.90;;;;;;4881704;29;20220;-82
2022/11/05 08:14:59;;;;;;;12.80;12.10;;;9.60;99.90;;;;;;4878097;29;20280;-82
2022/11/05 08:17:26;;;;;;;12.30;11.60;;;9.60;99.90;;;;;;4892602;29;20259;-82
2022/11/05 08:19:53;;;;;;;12.10;11.40;;;9.60;99.90;;;;;;4890806;29;20211;-81
2022/11/05 08:22:20;;;;;;;11.87;11.27;;;9.50;99.90;;;;;;4894508;29;20681;-83
2022/11/05 08:24:47;;;;;;;12.70;12.00;;;9.50;99.90;;;;;;4894494;29;20212;-83
2022/11/05 08:27:14;;;;;;;12.30;11.60;;;9.50;99.90;;;;;;4893605;29;20623;-83
2022/11/05 08:29:41;;;;;;;12.10;11.40;;;9.50;99.90;;;;;;4889596;29;20209;-82
2022/11/05 08:32:09;;;;;;;11.97;11.27;;;9.40;99.90;;;;;;4895089;29;20224;-82
2022/11/05 08:34:36;;;;;;;13.03;12.33;;;9.40;99.90;;;;;;4889731;29;20273;-82
2022/11/05 08:37:03;;;;;;;12.33;11.63;;;9.40;99.90;;;;;;4894123;29;20204;-81
2022/11/05 08:39:30;;;;;;;12.40;11.70;;;9.40;99.90;;;;;;4893269;29;20205;-83
2022/11/05 08:41:57;;;;;;;12.70;12.00;;;9.50;99.90;;;;;;4892914;29;20213;-81
2022/11/05 08:44:24;;;;;;;12.63;11.93;;;9.50;99.90;;;;;;4898332;29;20696;-82
2022/11/05 08:46:51;;;;;;;12.47;11.80;;;9.60;99.90;;;;;;4882881;29;20296;-82
2022/11/05 08:49:19;;;;;;;12.40;11.70;;;9.70;99.90;;;;;;4889343;29;20221;-82
2022/11/05 08:51:46;;;;;;;12.80;12.00;;;9.70;99.90;;;;;;4895654;29;20224;-82
2022/11/05 08:54:13;;;;;;;13.53;12.73;;;9.80;99.90;;;;;;4892234;29;20222;-82
2022/11/05 08:56:40;;;;;;;13.50;12.70;;;9.90;99.90;;;;;;4891600;29;20296;-84
2022/11/05 08:59:07;;;;;;;12.87;12.17;;;9.90;99.90;;;;;;4894868;29;20568;-83
2022/11/05 09:01:34;;;;;;;13.97;13.17;;;9.90;99.90;;;;;;4893414;29;20227;-83
2022/11/05 09:04:01;;;;;;;13.00;12.30;;;10.00;99.90;;;;;;4891436;29;20193;-82
2022/11/05 09:06:29;;;;;;;12.47;11.87;;;10.00;99.90;;;;;;4889884;29;20209;-83
2022/11/05 09:08:56;;;;;;;12.23;11.53;;;9.90;99.90;;;;;;4892861;29;20212;-82
2022/11/05 09:11:23;;;;;;;12.03;11.43;;;9.80;99.90;;;;;;4889752;29;20220;-82
2022/11/05 09:13:50;;;;;;;12.50;11.70;;;9.70;99.90;;;;;;4894478;29;20292;-82
2022/11/05 09:16:21;;;;;;;12.60;11.90;;;9.70;99.90;;;;;;4893718;29;20260;-82
2022/11/05 09:18:49;;;;;;;12.23;11.53;;;9.60;99.90;;;;;;4898279;29;20196;-84
2022/11/05 09:21:16;;;;;;;12.10;11.50;;;9.60;99.90;;;;;;4897949;29;20271;-84
2022/11/05 09:23:44;;;;;;;12.77;12.07;;;9.60;99.90;;;;;;4902998;29;20201;-84
2022/11/05 09:26:12;;;;;;;13.20;12.40;;;9.60;99.90;;;;;;4897271;29;20200;-82
2022/11/05 09:28:39;;;;;;;13.47;12.67;;;9.70;99.90;;;;;;4893036;29;20205;-82
2022/11/05 09:31:07;;;;;;;13.97;13.17;;;9.60;99.90;;;;;;4893007;29;20224;-83
2022/11/05 09:33:35;;;;;;;14.67;13.77;;;9.70;99.90;;;;;;4894388;29;20235;-81
2022/11/05 09:36:03;;;;;;;14.20;13.40;;;9.80;99.90;;;;;;4896822;29;20212;-82
2022/11/05 09:38:31;;;;;;;14.70;13.80;;;9.90;99.90;;;;;;4888598;29;20208;-82
2022/11/05 09:41:02;;;;;;;15.60;14.43;;;10.00;99.90;;;;;;4892065;29;20640;-82
2022/11/05 09:43:34;;;;;;;15.70;14.70;;;10.10;99.90;;;;;;4888084;29;20193;-81
2022/11/05 09:46:09;;;;;;;15.47;14.57;;;10.20;99.90;;;;;;4895817;29;20205;-81
2022/11/05 09:48:38;;;;;;;14.60;13.70;;;10.20;99.90;;;;;;4884575;29;20212;-81
2022/11/05 09:51:06;;;;;;;14.63;13.73;;;10.40;99.90;;;;;;4890998;29;20285;-82
2022/11/05 09:53:37;;;;;;;14.63;13.73;;;10.40;99.90;;;;;;4892769;29;20273;-82
2022/11/05 09:56:15;;;;;;;14.33;13.50;;;10.40;99.90;;;;;;4891016;29;20845;-79
2022/11/05 09:58:45;;;;;;;11.80;11.00;;;10.50;99.90;;;;;;4894819;29;20685;-81
2022/11/05 10:01:18;;;;;;;5.63;5.13;;;10.50;99.90;;;;;;4893945;29;20582;-81
2022/11/05 10:03:48;;;;;;;5.50;5.00;;;10.60;99.90;;;;;;4890529;29;20208;-82
2022/11/05 10:06:20;;;;;;;7.13;6.43;;;10.70;99.90;;;;;;4889890;29;20201;-81
2022/11/05 10:08:52;;;;;;;7.50;6.17;;;10.70;99.90;;;;;;4894637;29;20206;-81
2022/11/05 10:11:24;;;;;;;6.90;6.30;;;10.70;99.90;;;;;;4898786;29;20233;-82
2022/11/05 10:13:56;;;;;;;7.57;6.87;;;10.70;99.90;;;;;;4895135;29;20220;-82
2022/11/05 10:16:26;;;;;;;8.73;7.93;;;10.90;99.90;;;;;;4894517;29;20203;-82
2022/11/05 10:18:59;;;;;;;7.23;6.67;;;11.10;99.90;;;;;;4898813;29;20233;-83
2022/11/05 10:21:26;;;;;;;10.30;9.60;;;11.30;99.90;;;;;;4893533;29;20226;-83
2022/11/05 10:23:53;;;;;;;5.77;5.27;;;11.40;99.90;;;;;;4899132;29;20194;-83
2022/11/05 10:26:25;;;;;;;5.17;4.77;;;11.50;99.90;;;;;;4898329;29;20211;-84
2022/11/05 10:28:53;;;;;;;4.87;4.47;;;11.60;99.90;;;;;;4901884;29;20207;-82
2022/11/05 10:31:21;;;;;;;12.80;12.00;;;11.60;99.90;;;;;;4899571;29;20235;-83
2022/11/05 10:33:50;;;;;;;13.30;12.50;;;11.50;99.90;;;;;;4895844;29;20223;-82
2022/11/05 10:36:22;;;;;;;12.97;12.17;;;11.60;99.90;;;;;;4902212;29;20740;-82
2022/11/05 10:38:49;;;;;;;12.23;11.53;;;11.70;99.90;;;;;;4891031;29;20209;-83
2022/11/05 10:41:36;;;;;;;12.77;11.97;;;11.70;99.90;;;;;;4899461;29;20287;-83
2022/11/05 10:44:14;;;;;;;12.50;11.70;;;11.70;99.90;;;;;;4898304;29;20201;-82
2022/11/05 10:46:46;;;;;;;12.90;12.00;;;11.50;99.90;;;;;;4891510;29;20267;-83
2022/11/05 10:49:24;;;;;;;12.77;11.97;;;11.40;99.90;;;;;;4898145;29;20218;-83
2022/11/05 10:51:55;;;;;;;12.60;11.80;;;11.40;99.90;;;;;;4897737;29;20230;-78
2022/11/05 10:54:24;;;;;;;12.00;11.30;;;11.40;99.90;;;;;;4890666;29;20231;-81
2022/11/05 10:56:53;;;;;;;11.80;11.00;;;11.30;99.90;;;;;;4886019;29;20230;-82
2022/11/05 10:59:22;;;;;;;12.20;11.40;;;11.30;99.90;;;;;;4881051;29;20212;-82
2022/11/05 11:01:57;;;;;;;11.53;10.83;;;11.40;99.90;;;;;;4883748;29;20738;-83
2022/11/05 11:04:26;;;;;;;11.90;11.10;;;11.40;99.90;;;;;;4882226;29;20221;-82
2022/11/05 11:06:54;;;;;;;11.53;10.83;;;11.50;99.90;;;;;;4882911;29;20662;-82
2022/11/05 11:09:24;;;;;;;11.00;10.30;;;11.60;99.90;;;;;;4881318;29;20215;-82
2022/11/05 11:12:03;;;;;;;11.07;10.37;;;11.50;99.90;;;;;;4892148;29;20243;-83
2022/11/05 11:14:30;;;;;;;11.30;10.60;;;11.50;99.90;;;;;;4881525;29;20240;-81
2022/11/05 11:17:17;;;;;;;10.00;9.30;;;11.60;99.90;;;;;;4880940;29;20268;-82
2022/11/05 11:19:44;;;;;;;11.00;10.23;;;11.50;99.90;;;;;;4880072;29;20224;-82
2022/11/05 11:22:19;;;;;;;10.57;9.93;;;11.60;99.90;;;;;;4895380;29;20291;-82
2022/11/05 11:24:48;;;;;;;10.30;9.60;;;11.60;99.90;;;;;;4879408;29;20218;-82
2022/11/05 11:27:21;;;;;;;10.03;9.43;;;11.60;99.90;;;;;;4880077;29;20208;-82
2022/11/05 11:29:52;;;;;;;11.17;10.40;;;11.70;99.90;;;;;;4879016;29;20682;-82
2022/11/05 11:32:21;;;;;;;10.20;9.60;;;11.80;99.90;;;;;;4882034;29;20227;-82
2022/11/05 11:34:52;;;;;;;10.77;10.10;;;11.80;99.90;;;;;;4880858;29;20591;-81
2022/11/05 11:37:23;;;;;;;10.83;10.13;;;11.80;99.90;;;;;;4881735;29;20209;-82
2022/11/05 11:39:52;;;;;;;12.23;11.53;;;12.00;99.90;;;;;;4879706;29;20208;-82
2022/11/05 11:42:26;;;;;;;12.90;12.10;;;12.00;99.90;;;;;;4880973;29;20665;-81
2022/11/05 11:44:53;;;;;;;13.00;12.20;;;12.00;99.90;;;;;;4892589;29;20212;-82
2022/11/05 11:47:22;;;;;;;12.93;12.13;;;11.90;99.90;;;;;;4881266;29;20216;-83
2022/11/05 11:49:52;;;;;;;13.10;12.30;;;12.00;99.90;;;;;;4885613;29;20204;-82
2022/11/05 11:52:26;;;;;;;12.80;12.00;;;12.00;99.90;;;;;;4881392;29;20225;-81
2022/11/05 11:55:06;;;;;;;11.73;11.03;;;11.90;99.90;;;;;;4882240;29;20234;-81
2022/11/05 11:57:43;;;;;;;12.10;11.40;;;11.90;99.90;;;;;;4879714;29;20212;-83
2022/11/05 12:00:11;;;;;;;13.23;12.47;;;11.80;99.90;;;;;;4888028;29;20262;-84
2022/11/05 12:02:52;;;;;;;13.33;12.53;;;11.60;99.90;;;;;;4894367;29;20240;-82
2022/11/05 12:05:31;;;;;;;13.60;12.80;;;11.50;99.90;;;;;;4903870;29;20214;-80
2022/11/05 12:08:06;;;;;;;13.10;12.27;;;11.30;99.90;;;;;;4892496;29;20580;-83
2022/11/05 12:10:44;;;;;;;13.00;12.20;;;11.10;99.90;;;;;;4892667;29;20204;-82
2022/11/05 12:17:08;;;;;;;13.20;12.30;;;10.70;99.90;;;;;;4851970;29;21554;-84
2022/11/05 12:19:54;;;;;;;13.83;12.83;;;10.60;99.90;;;;;;4904090;29;20659;-86
2022/11/05 12:45:44;;;;;;;14.40;13.30;;;10.80;99.90;;;;;;4966553;23;20780;-86
2022/11/05 12:48:37;;;;;;;12.13;8.07;;;10.80;99.90;;;;;;4887160;29;20672;-82
2022/11/05 12:51:16;;;;;;;22.23;17.73;;;10.90;99.90;;;;;;4902119;29;20225;-82
2022/11/05 12:53:53;;;;;;;23.70;18.40;;;10.80;99.90;;;;;;4891256;29;20213;-83
2022/11/05 13:04:43;;;;;;;17.40;15.80;;;10.90;99.90;;;;;;4773089;29;20206;-85
2022/11/05 13:10:36;;;;;;;12.17;11.10;;;11.00;99.90;;;;;;4842487;29;20223;-83
2022/11/05 13:13:10;;;;;;;7.37;6.67;;;11.00;99.90;;;;;;4857967;29;20208;-83
2022/11/05 13:15:40;;;;;;;11.47;10.67;;;10.90;99.90;;;;;;4882644;29;20209;-84
2022/11/05 13:18:14;;;;;;;10.30;7.30;;;10.90;99.90;;;;;;4896142;29;20674;-84
2022/11/05 13:20:46;;;;;;;14.93;13.90;;;10.80;99.90;;;;;;4894067;29;20210;-82
2022/11/05 13:23:18;;;;;;;15.30;14.13;;;10.80;99.90;;;;;;4894148;29;20210;-83
2022/11/05 13:25:51;;;;;;;9.93;9.13;;;10.80;99.90;;;;;;4890784;29;20582;-82
2022/11/05 13:28:27;;;;;;;9.83;9.03;;;10.80;99.90;;;;;;4887348;29;20214;-83
2022/11/05 13:30:57;;;;;;;13.63;12.53;;;10.60;99.90;;;;;;4898096;29;20240;-81
2022/11/05 13:33:29;;;;;;;12.13;11.03;;;10.60;99.90;;;;;;4885780;29;20205;-82
2022/11/05 13:41:43;;;;;;;8.90;8.17;;;10.60;99.90;;;;;;4885423;29;20220;-80
2022/11/05 13:44:41;;;;;;;14.10;13.10;;;10.60;99.90;;;;;;4904397;29;20213;-82
2022/11/05 13:47:38;;;;;;;14.77;13.67;;;10.50;99.90;;;;;;4893817;29;20242;-81
2022/11/05 13:50:28;;;;;;;15.47;14.37;;;10.60;99.90;;;;;;4902074;29;20205;-81
2022/11/05 13:53:13;;;;;;;14.87;13.77;;;10.60;99.90;;;;;;4906306;29;20205;-80
2022/11/05 13:55:56;;;;;;;15.50;14.40;;;10.50;99.90;;;;;;4899157;29;20192;-81
2022/11/05 13:58:44;;;;;;;16.00;14.80;;;10.50;99.90;;;;;;4903745;29;20602;-82
2022/11/05 14:01:23;;;;;;;16.47;15.03;;;10.40;99.90;;;;;;4904052;29;20714;-85
2022/11/05 14:03:53;;;;;;;15.83;14.70;;;10.40;99.90;;;;;;4905870;29;20195;-84
2022/11/05 14:06:25;;;;;;;15.50;14.30;;;10.40;99.90;;;;;;4906509;29;20236;-84
2022/11/05 14:08:58;;;;;;;14.90;13.90;;;10.40;99.90;;;;;;4901212;29;20273;-80
2022/11/05 14:11:29;;;;;;;15.17;13.87;;;10.40;99.90;;;;;;4889465;29;20224;-81
2022/11/05 14:13:58;;;;;;;16.20;15.00;;;10.40;99.90;;;;;;4901867;29;20210;-82
2022/11/05 14:16:28;;;;;;;16.90;15.27;;;10.30;99.90;;;;;;4886523;29;20581;-81
2022/11/05 14:19:29;;;;;;;15.83;14.77;;;10.30;99.90;;;;;;4902633;29;20257;-82
2022/11/05 14:21:57;;;;;;;17.90;16.40;;;10.30;99.90;;;;;;4897996;29;20769;-82
2022/11/05 14:24:38;;;;;;;17.53;16.13;;;10.20;99.90;;;;;;4901692;29;20201;-82
2022/11/05 14:27:43;;;;;;;17.07;15.83;;;10.20;99.90;;;;;;4905765;29;20869;-82
2022/11/05 14:30:43;;;;;;;16.63;15.50;;;10.20;99.90;;;;;;4902063;29;20225;-81
2022/11/05 14:33:16;;;;;;;17.60;16.30;;;10.20;99.90;;;;;;4898798;29;20821;-82
2022/11/05 14:35:43;;;;;;;16.73;15.57;;;10.20;99.90;;;;;;4901018;29;20225;-82
2022/11/05 14:38:20;;;;;;;17.93;16.50;;;10.20;99.90;;;;;;4903831;29;20204;-83
2022/11/05 14:40:58;;;;;;;19.07;17.47;;;10.20;99.90;;;;;;4902128;29;20659;-82
2022/11/05 14:43:35;;;;;;;20.97;19.00;;;10.10;99.90;;;;;;4900594;29;20207;-81
2022/11/05 14:46:04;;;;;;;19.67;18.17;;;10.10;99.90;;;;;;4902647;29;20681;-81
2022/11/05 14:48:39;;;;;;;20.53;18.77;;;10.00;99.90;;;;;;4909169;29;20315;-82
2022/11/05 14:51:26;;;;;;;19.07;17.50;;;10.00;99.90;;;;;;4901083;29;20660;-82
2022/11/05 14:54:01;;;;;;;18.20;16.80;;;9.90;99.90;;;;;;4902031;29;20228;-82
2022/11/05 14:56:40;;;;;;;17.80;16.43;;;9.90;99.90;;;;;;4889319;29;20216;-82
2022/11/05 14:59:51;;;;;;;18.23;16.80;;;9.80;99.90;;;;;;4896160;29;20205;-82
2022/11/05 15:02:21;;;;;;;18.17;16.73;;;9.80;99.90;;;;;;4903053;29;20228;-83
2022/11/05 15:04:51;;;;;;;18.03;16.63;;;9.80;99.90;;;;;;4899603;29;20573;-83
2022/11/05 15:07:46;;;;;;;19.00;17.43;;;9.80;99.90;;;;;;4899429;29;20204;-84
2022/11/05 15:10:15;;;;;;;19.63;18.03;;;9.70;99.90;;;;;;4898996;29;20302;-81
2022/11/05 15:12:46;;;;;;;20.23;18.53;;;9.80;99.90;;;;;;4900425;29;20228;-81
2022/11/05 15:15:21;;;;;;;20.67;19.00;;;9.70;99.90;;;;;;4902239;29;20643;-81
2022/11/05 15:18:03;;;;;;;20.87;19.17;;;9.70;99.90;;;;;;4900922;29;20212;-82
2022/11/05 15:20:37;;;;;;;19.20;17.63;;;9.80;99.90;;;;;;4894596;29;20196;-81
2022/11/05 15:23:06;;;;;;;19.97;18.27;;;9.70;99.90;;;;;;4893114;29;20762;-82
2022/11/05 15:25:43;;;;;;;19.60;17.97;;;9.70;99.90;;;;;;4897674;29;20558;-81
2022/11/05 15:28:18;;;;;;;18.47;16.97;;;9.70;99.90;;;;;;4896318;29;20295;-82
2022/11/05 15:30:59;;;;;;;17.43;16.03;;;9.70;99.90;;;;;;4896853;29;20232;-82
2022/11/05 15:33:27;;;;;;;16.60;15.30;;;9.70;99.90;;;;;;4901602;29;20260;-81
2022/11/05 15:35:54;;;;;;;17.90;16.40;;;9.70;99.90;;;;;;4902695;29;20229;-82
2022/11/05 15:38:30;;;;;;;17.10;15.80;;;9.70;99.90;;;;;;4900015;29;20201;-81
2022/11/05 15:41:01;;;;;;;16.93;15.63;;;9.70;99.90;;;;;;4903354;29;20211;-83
2022/11/05 15:43:30;;;;;;;17.27;15.67;;;9.60;99.90;;;;;;4902275;29;20256;-81
2022/11/05 15:46:02;;;;;;;17.33;16.00;;;9.60;99.90;;;;;;4902874;29;20212;-83
2022/11/05 15:48:29;;;;;;;16.03;14.83;;;9.60;99.90;;;;;;4897555;29;20211;-82
2022/11/05 15:50:56;;;;;;;16.27;15.07;;;9.60;99.90;;;;;;4898503;29;20225;-82
2022/11/05 15:53:54;;;;;;;17.97;16.20;;;9.60;99.90;;;;;;4901342;29;20674;-82
2022/11/05 15:56:24;;;;;;;16.83;15.63;;;9.50;99.90;;;;;;4897925;29;20245;-81
2022/11/05 15:58:54;;;;;;;16.33;15.13;;;9.50;99.90;;;;;;4901510;29;20207;-80
2022/11/05 16:01:23;;;;;;;16.27;14.87;;;9.50;99.90;;;;;;4898482;29;20236;-84
2022/11/05 16:03:52;;;;;;;16.63;15.30;;;9.50;99.90;;;;;;4901473;29;20208;-82
2022/11/05 16:06:19;;;;;;;16.57;15.20;;;9.40;99.90;;;;;;4900382;29;20268;-82
2022/11/05 16:08:49;;;;;;;16.67;15.43;;;9.40;99.90;;;;;;4896585;29;20201;-83
2022/11/05 16:11:24;;;;;;;18.53;17.00;;;9.30;99.90;;;;;;4903230;29;20223;-83
2022/11/05 16:13:53;;;;;;;18.53;16.73;;;9.30;99.90;;;;;;4901083;29;20222;-81
2022/11/05 16:16:32;;;;;;;19.67;17.97;;;9.30;99.90;;;;;;4904527;29;20580;-83
2022/11/05 16:18:59;;;;;;;21.80;19.80;;;9.20;99.90;;;;;;4900235;29;20204;-81
2022/11/05 16:21:26;;;;;;;21.87;19.90;;;9.10;99.90;;;;;;4900183;29;20224;-83
2022/11/05 16:23:55;;;;;;;21.43;19.63;;;9.20;99.90;;;;;;4898749;29;20208;-82
2022/11/05 16:26:37;;;;;;;23.07;20.87;;;9.10;99.90;;;;;;4914495;29;20208;-81
2022/11/05 16:29:12;;;;;;;21.77;19.87;;;9.10;99.90;;;;;;4895083;29;20209;-83
2022/11/05 16:31:40;;;;;;;22.17;20.07;;;9.10;99.90;;;;;;4901029;29;20271;-84
2022/11/05 16:34:07;;;;;;;23.50;21.47;;;9.00;99.90;;;;;;4899149;29;20716;-84
2022/11/05 16:36:39;;;;;;;22.63;20.53;;;9.10;99.90;;;;;;4898518;29;20625;-84
2022/11/05 16:39:06;;;;;;;24.10;22.00;;;9.00;99.90;;;;;;4897042;29;20205;-83
2022/11/05 16:41:42;;;;;;;23.33;21.17;;;9.00;99.90;;;;;;4896554;29;20708;-83
2022/11/05 16:44:15;;;;;;;23.37;21.37;;;8.90;99.90;;;;;;4896518;29;20215;-84
2022/11/05 16:46:45;;;;;;;22.60;20.67;;;8.90;99.90;;;;;;4898615;29;20197;-82
2022/11/05 16:49:13;;;;;;;21.80;19.93;;;8.80;99.90;;;;;;4901651;29;20196;-82
2022/11/05 16:51:40;;;;;;;22.97;21.00;;;8.80;99.90;;;;;;4899249;29;20224;-81
2022/11/05 16:54:07;;;;;;;23.50;21.40;;;8.80;99.90;;;;;;4896642;29;20209;-80
2022/11/05 17:03:30;;;;;;;22.33;20.33;;;8.50;99.90;;;;;;4991305;23;20231;-83